sensor_id;sensor_type;location;lat;lon;timestamp;temperature;humidity
12870;DHT22;6503;48.572;13.460;2022-07-05T00:00:30;21.60;99.90
12870;DHT22;6503;48.572;13.460;2022-07-05T00:02:57;21.40;99.90
12870;DHT22;6503;48.572;13.460;2022-07-05T00:05:25;21.40;99.90
12870;DHT22;6503;48.572;13.460;2022-07-05T00:07:52;21.30;99.90
12870;DHT22;6503;48.572;13.460;2022-07-05T00:10:19;21.30;99.90
12870;DHT22;6503;48.572;13.460;2022-07-05T00:12:47;21.30;99.90
12870;DHT22;6503;48.572;13.460;2022-07-05T00:15:16;21.30;99.90
12870;DHT22;6503;48.572;13.460;2022-07-05T00:17:46;21.30;99.90
12870;DHT22;6503;48.572;13.460;2022-07-05T00:20:14;21.20;99.90
12870;DHT22;6503;48.572;13.460;2022-07-05T00:22:41;20.90;99.90
12870;DHT22;6503;48.572;13.460;2022-07-05T00:25:09;20.80;99.90
12870;DHT22;6503;48.572;13.460;2022-07-05T00:27:38;20.80;99.90
12870;DHT22;6503;48.572;13.460;2022-07-05T00:30:06;20.80;99.90
12870;DHT22;6503;48.572;13.460;2022-07-05T00:32:34;20.80;99.90
12870;DHT22;6503;48.572;13.460;2022-07-05T00:35:08;20.80;99.90
12870;DHT22;6503;48.572;13.460;2022-07-05T00:37:36;20.70;99.90
12870;DHT22;6503;48.572;13.460;2022-07-05T00:40:04;20.50;99.90
12870;DHT22;6503;48.572;13.460;2022-07-05T00:42:33;20.30;99.90
12870;DHT22;6503;48.572;13.460;2022-07-05T00:45:03;20.20;99.90
12870;DHT22;6503;48.572;13.460;2022-07-05T00:47:30;20.10;99.90
12870;DHT22;6503;48.572;13.460;2022-07-05T00:49:59;20.00;99.90
12870;DHT22;6503;48.572;13.460;2022-07-05T00:52:29;19.80;99.90
12870;DHT22;6503;48.572;13.460;2022-07-05T00:54:57;19.70;99.90
12870;DHT22;6503;48.572;13.460;2022-07-05T00:57:25;19.70;99.90
12870;DHT22;6503;48.572;13.460;2022-07-05T00:59:53;19.70;99.90
12870;DHT22;6503;48.572;13.460;2022-07-05T01:02:20;19.70;99.90
12870;DHT22;6503;48.572;13.460;2022-07-05T01:04:50;19.70;99.90
12870;DHT22;6503;48.572;13.460;2022-07-05T01:07:19;19.60;99.90
12870;DHT22;6503;48.572;13.460;2022-07-05T01:09:49;19.60;99.90
12870;DHT22;6503;48.572;13.460;2022-07-05T01:12:17;19.70;99.90
12870;DHT22;6503;48.572;13.460;2022-07-05T01:14:45;19.70;99.90
12870;DHT22;6503;48.572;13.460;2022-07-05T01:17:16;19.70;99.90
12870;DHT22;6503;48.572;13.460;2022-07-05T01:19:44;19.60;99.90
12870;DHT22;6503;48.572;13.460;2022-07-05T01:22:16;19.60;99.90
12870;DHT22;6503;48.572;13.460;2022-07-05T01:24:48;19.60;99.90
12870;DHT22;6503;48.572;13.460;2022-07-05T01:27:17;19.60;99.90
12870;DHT22;6503;48.572;13.460;2022-07-05T01:29:44;19.60;99.90
12870;DHT22;6503;48.572;13.460;2022-07-05T01:32:12;19.60;99.90
12870;DHT22;6503;48.572;13.460;2022-07-05T01:34:42;19.50;99.90
12870;DHT22;6503;48.572;13.460;2022-07-05T01:37:10;19.40;99.90
12870;DHT22;6503;48.572;13.460;2022-07-05T01:39:38;19.50;99.90
12870;DHT22;6503;48.572;13.460;2022-07-05T01:42:07;19.40;99.90
12870;DHT22;6503;48.572;13.460;2022-07-05T01:44:35;19.40;99.90
12870;DHT22;6503;48.572;13.460;2022-07-05T01:47:06;19.40;99.90
12870;DHT22;6503;48.572;13.460;2022-07-05T01:49:38;19.30;99.90
12870;DHT22;6503;48.572;13.460;2022-07-05T01:52:09;19.30;99.90
12870;DHT22;6503;48.572;13.460;2022-07-05T01:54:37;19.20;99.90
12870;DHT22;6503;48.572;13.460;2022-07-05T01:57:06;19.20;99.90
12870;DHT22;6503;48.572;13.460;2022-07-05T01:59:35;19.20;99.90
12870;DHT22;6503;48.572;13.460;2022-07-05T02:02:03;19.30;99.90
12870;DHT22;6503;48.572;13.460;2022-07-05T02:04:33;19.30;99.90
12870;DHT22;6503;48.572;13.460;2022-07-05T02:07:03;19.40;99.90
12870;DHT22;6503;48.572;13.460;2022-07-05T02:09:30;19.40;99.90
12870;DHT22;6503;48.572;13.460;2022-07-05T02:11:58;19.30;99.90
12870;DHT22;6503;48.572;13.460;2022-07-05T02:14:27;19.30;99.90
12870;DHT22;6503;48.572;13.460;2022-07-05T02:16:55;19.30;99.90
12870;DHT22;6503;48.572;13.460;2022-07-05T02:19:22;19.30;99.90
12870;DHT22;6503;48.572;13.460;2022-07-05T02:21:50;19.40;99.90
12870;DHT22;6503;48.572;13.460;2022-07-05T02:24:17;19.30;99.90
12870;DHT22;6503;48.572;13.460;2022-07-05T02:26:44;19.30;99.90
12870;DHT22;6503;48.572;13.460;2022-07-05T02:29:12;19.20;99.90
12870;DHT22;6503;48.572;13.460;2022-07-05T02:31:41;19.20;99.90
12870;DHT22;6503;48.572;13.460;2022-07-05T02:34:08;19.20;99.90
12870;DHT22;6503;48.572;13.460;2022-07-05T02:36:37;19.10;99.90
12870;DHT22;6503;48.572;13.460;2022-07-05T02:39:05;19.10;99.90
12870;DHT22;6503;48.572;13.460;2022-07-05T02:41:36;19.00;99.90
12870;DHT22;6503;48.572;13.460;2022-07-05T02:44:04;19.00;99.90
12870;DHT22;6503;48.572;13.460;2022-07-05T02:46:31;18.90;99.90
12870;DHT22;6503;48.572;13.460;2022-07-05T02:49:00;18.90;99.90
12870;DHT22;6503;48.572;13.460;2022-07-05T02:51:27;18.90;99.90
12870;DHT22;6503;48.572;13.460;2022-07-05T02:53:54;18.90;99.90
12870;DHT22;6503;48.572;13.460;2022-07-05T02:56:21;18.90;99.90
12870;DHT22;6503;48.572;13.460;2022-07-05T02:58:49;18.90;99.90
12870;DHT22;6503;48.572;13.460;2022-07-05T03:01:16;18.90;99.90
12870;DHT22;6503;48.572;13.460;2022-07-05T03:03:43;18.90;99.90
12870;DHT22;6503;48.572;13.460;2022-07-05T03:06:12;18.90;99.90
12870;DHT22;6503;48.572;13.460;2022-07-05T03:08:40;18.80;99.90
12870;DHT22;6503;48.572;13.460;2022-07-05T03:11:08;18.80;99.90
12870;DHT22;6503;48.572;13.460;2022-07-05T03:13:35;18.90;99.90
12870;DHT22;6503;48.572;13.460;2022-07-05T03:16:02;18.90;99.90
12870;DHT22;6503;48.572;13.460;2022-07-05T03:18:30;19.00;99.90
12870;DHT22;6503;48.572;13.460;2022-07-05T03:20:57;18.90;99.90
12870;DHT22;6503;48.572;13.460;2022-07-05T03:23:25;18.80;99.90
12870;DHT22;6503;48.572;13.460;2022-07-05T03:25:53;18.80;99.90
12870;DHT22;6503;48.572;13.460;2022-07-05T03:28:20;18.70;99.90
12870;DHT22;6503;48.572;13.460;2022-07-05T03:30:48;18.80;99.90
12870;DHT22;6503;48.572;13.460;2022-07-05T03:33:15;18.70;99.90
12870;DHT22;6503;48.572;13.460;2022-07-05T03:35:42;18.60;99.90
12870;DHT22;6503;48.572;13.460;2022-07-05T03:38:09;18.60;99.90
12870;DHT22;6503;48.572;13.460;2022-07-05T03:40:38;18.60;99.90
12870;DHT22;6503;48.572;13.460;2022-07-05T03:43:05;18.60;99.90
12870;DHT22;6503;48.572;13.460;2022-07-05T03:45:32;18.50;99.90
12870;DHT22;6503;48.572;13.460;2022-07-05T03:48:00;18.50;99.90
12870;DHT22;6503;48.572;13.460;2022-07-05T03:50:28;18.50;99.90
12870;DHT22;6503;48.572;13.460;2022-07-05T03:52:55;18.50;99.90
12870;DHT22;6503;48.572;13.460;2022-07-05T03:55:22;18.60;99.90
12870;DHT22;6503;48.572;13.460;2022-07-05T03:57:51;18.50;99.90
12870;DHT22;6503;48.572;13.460;2022-07-05T04:00:18;18.50;99.90
12870;DHT22;6503;48.572;13.460;2022-07-05T04:02:45;18.60;99.90
12870;DHT22;6503;48.572;13.460;2022-07-05T04:05:12;18.60;99.90
12870;DHT22;6503;48.572;13.460;2022-07-05T04:07:49;18.60;99.90
12870;DHT22;6503;48.572;13.460;2022-07-05T04:10:17;18.60;99.90
12870;DHT22;6503;48.572;13.460;2022-07-05T04:12:45;18.60;99.90
12870;DHT22;6503;48.572;13.460;2022-07-05T04:15:14;18.60;99.90
12870;DHT22;6503;48.572;13.460;2022-07-05T04:17:48;18.60;99.90
12870;DHT22;6503;48.572;13.460;2022-07-05T04:20:15;18.60;99.90
12870;DHT22;6503;48.572;13.460;2022-07-05T04:22:43;18.60;99.90
12870;DHT22;6503;48.572;13.460;2022-07-05T04:25:10;18.50;99.90
12870;DHT22;6503;48.572;13.460;2022-07-05T04:27:43;18.60;99.90
12870;DHT22;6503;48.572;13.460;2022-07-05T04:30:13;18.60;99.90
12870;DHT22;6503;48.572;13.460;2022-07-05T04:32:40;18.70;99.90
12870;DHT22;6503;48.572;13.460;2022-07-05T04:35:08;18.70;99.90
12870;DHT22;6503;48.572;13.460;2022-07-05T04:37:36;18.60;99.90
12870;DHT22;6503;48.572;13.460;2022-07-05T04:40:05;18.60;99.90
12870;DHT22;6503;48.572;13.460;2022-07-05T04:42:32;18.60;99.90
12870;DHT22;6503;48.572;13.460;2022-07-05T04:44:59;18.60;99.90
12870;DHT22;6503;48.572;13.460;2022-07-05T04:47:28;18.60;99.90
12870;DHT22;6503;48.572;13.460;2022-07-05T04:49:56;18.50;99.90
12870;DHT22;6503;48.572;13.460;2022-07-05T04:52:24;18.50;99.90
12870;DHT22;6503;48.572;13.460;2022-07-05T04:54:52;18.60;99.90
12870;DHT22;6503;48.572;13.460;2022-07-05T04:57:19;18.60;99.90
12870;DHT22;6503;48.572;13.460;2022-07-05T04:59:47;18.60;99.90
12870;DHT22;6503;48.572;13.460;2022-07-05T05:02:14;18.50;99.90
12870;DHT22;6503;48.572;13.460;2022-07-05T05:04:42;18.50;99.90
12870;DHT22;6503;48.572;13.460;2022-07-05T05:07:09;18.50;99.90
12870;DHT22;6503;48.572;13.460;2022-07-05T05:09:36;18.60;99.90
12870;DHT22;6503;48.572;13.460;2022-07-05T05:12:05;18.60;99.90
12870;DHT22;6503;48.572;13.460;2022-07-05T05:14:32;18.60;99.90
12870;DHT22;6503;48.572;13.460;2022-07-05T05:16:59;18.60;99.90
12870;DHT22;6503;48.572;13.460;2022-07-05T05:19:26;18.70;99.90
12870;DHT22;6503;48.572;13.460;2022-07-05T05:21:57;18.80;99.90
12870;DHT22;6503;48.572;13.460;2022-07-05T05:24:24;18.80;99.90
12870;DHT22;6503;48.572;13.460;2022-07-05T05:26:51;18.70;99.90
12870;DHT22;6503;48.572;13.460;2022-07-05T05:29:18;18.70;99.90
12870;DHT22;6503;48.572;13.460;2022-07-05T05:31:46;18.50;99.90
12870;DHT22;6503;48.572;13.460;2022-07-05T05:34:13;18.50;99.90
12870;DHT22;6503;48.572;13.460;2022-07-05T05:36:40;18.60;99.90
12870;DHT22;6503;48.572;13.460;2022-07-05T05:39:10;18.60;99.90
12870;DHT22;6503;48.572;13.460;2022-07-05T05:41:38;18.60;99.90
12870;DHT22;6503;48.572;13.460;2022-07-05T05:44:06;18.70;99.90
12870;DHT22;6503;48.572;13.460;2022-07-05T05:46:33;18.70;99.90
12870;DHT22;6503;48.572;13.460;2022-07-05T05:49:01;18.80;99.90
12870;DHT22;6503;48.572;13.460;2022-07-05T05:51:28;18.80;99.90
12870;DHT22;6503;48.572;13.460;2022-07-05T05:53:56;18.90;99.90
12870;DHT22;6503;48.572;13.460;2022-07-05T05:56:24;19.00;99.90
12870;DHT22;6503;48.572;13.460;2022-07-05T05:58:52;19.00;99.90
12870;DHT22;6503;48.572;13.460;2022-07-05T06:01:20;19.00;99.90
12870;DHT22;6503;48.572;13.460;2022-07-05T06:03:47;19.00;99.90
12870;DHT22;6503;48.572;13.460;2022-07-05T06:06:16;19.20;99.90
12870;DHT22;6503;48.572;13.460;2022-07-05T06:08:45;19.30;99.90
12870;DHT22;6503;48.572;13.460;2022-07-05T06:11:15;19.40;99.90
12870;DHT22;6503;48.572;13.460;2022-07-05T06:13:44;19.50;99.90
12870;DHT22;6503;48.572;13.460;2022-07-05T06:16:11;19.50;99.90
12870;DHT22;6503;48.572;13.460;2022-07-05T06:18:38;19.50;99.90
12870;DHT22;6503;48.572;13.460;2022-07-05T06:21:06;19.70;99.90
12870;DHT22;6503;48.572;13.460;2022-07-05T06:23:33;19.90;99.90
12870;DHT22;6503;48.572;13.460;2022-07-05T06:26:00;20.00;99.90
12870;DHT22;6503;48.572;13.460;2022-07-05T06:28:28;20.10;99.90
12870;DHT22;6503;48.572;13.460;2022-07-05T06:30:59;20.10;99.90
12870;DHT22;6503;48.572;13.460;2022-07-05T06:33:27;20.20;99.90
12870;DHT22;6503;48.572;13.460;2022-07-05T06:35:55;20.20;99.90
12870;DHT22;6503;48.572;13.460;2022-07-05T06:38:22;20.30;99.90
12870;DHT22;6503;48.572;13.460;2022-07-05T06:40:50;20.30;99.90
12870;DHT22;6503;48.572;13.460;2022-07-05T06:43:25;20.30;99.90
12870;DHT22;6503;48.572;13.460;2022-07-05T06:45:52;20.40;99.90
12870;DHT22;6503;48.572;13.460;2022-07-05T06:48:23;20.40;99.90
12870;DHT22;6503;48.572;13.460;2022-07-05T06:50:53;20.40;99.90
12870;DHT22;6503;48.572;13.460;2022-07-05T06:53:22;20.50;99.90
12870;DHT22;6503;48.572;13.460;2022-07-05T06:55:50;20.50;99.90
12870;DHT22;6503;48.572;13.460;2022-07-05T06:58:21;20.50;99.90
12870;DHT22;6503;48.572;13.460;2022-07-05T07:00:48;20.40;99.90
12870;DHT22;6503;48.572;13.460;2022-07-05T07:03:20;20.40;99.90
12870;DHT22;6503;48.572;13.460;2022-07-05T07:05:49;20.40;99.90
12870;DHT22;6503;48.572;13.460;2022-07-05T07:08:16;20.50;99.90
12870;DHT22;6503;48.572;13.460;2022-07-05T07:11:01;20.50;99.90
12870;DHT22;6503;48.572;13.460;2022-07-05T07:13:29;20.50;99.90
12870;DHT22;6503;48.572;13.460;2022-07-05T07:15:56;20.50;99.90
12870;DHT22;6503;48.572;13.460;2022-07-05T07:18:23;20.60;99.90
12870;DHT22;6503;48.572;13.460;2022-07-05T07:20:54;20.70;99.90
12870;DHT22;6503;48.572;13.460;2022-07-05T07:23:21;20.80;99.90
12870;DHT22;6503;48.572;13.460;2022-07-05T07:25:49;20.90;99.90
12870;DHT22;6503;48.572;13.460;2022-07-05T07:28:16;21.10;99.90
12870;DHT22;6503;48.572;13.460;2022-07-05T07:30:43;21.30;99.90
12870;DHT22;6503;48.572;13.460;2022-07-05T07:33:10;21.40;99.90
12870;DHT22;6503;48.572;13.460;2022-07-05T07:35:38;21.50;99.90
12870;DHT22;6503;48.572;13.460;2022-07-05T07:38:07;21.50;99.90
12870;DHT22;6503;48.572;13.460;2022-07-05T07:40:34;21.60;99.90
12870;DHT22;6503;48.572;13.460;2022-07-05T07:43:02;21.70;99.90
12870;DHT22;6503;48.572;13.460;2022-07-05T07:45:29;21.70;99.90
12870;DHT22;6503;48.572;13.460;2022-07-05T07:47:57;21.70;99.90
12870;DHT22;6503;48.572;13.460;2022-07-05T07:50:25;21.70;99.90
12870;DHT22;6503;48.572;13.460;2022-07-05T07:52:54;21.70;99.90
12870;DHT22;6503;48.572;13.460;2022-07-05T07:55:24;21.60;99.90
12870;DHT22;6503;48.572;13.460;2022-07-05T07:57:51;21.60;99.90
12870;DHT22;6503;48.572;13.460;2022-07-05T08:00:20;21.70;99.90
12870;DHT22;6503;48.572;13.460;2022-07-05T08:02:48;21.60;99.90
12870;DHT22;6503;48.572;13.460;2022-07-05T08:05:17;21.70;99.90
12870;DHT22;6503;48.572;13.460;2022-07-05T08:07:46;21.80;99.90
12870;DHT22;6503;48.572;13.460;2022-07-05T08:10:14;22.20;99.90
12870;DHT22;6503;48.572;13.460;2022-07-05T08:12:43;22.40;99.90
12870;DHT22;6503;48.572;13.460;2022-07-05T08:15:12;22.40;99.90
12870;DHT22;6503;48.572;13.460;2022-07-05T08:17:40;22.50;99.90
12870;DHT22;6503;48.572;13.460;2022-07-05T08:20:27;22.40;99.90
12870;DHT22;6503;48.572;13.460;2022-07-05T08:23:12;22.40;99.90
12870;DHT22;6503;48.572;13.460;2022-07-05T08:25:39;22.30;99.90
12870;DHT22;6503;48.572;13.460;2022-07-05T08:28:08;22.30;99.90
12870;DHT22;6503;48.572;13.460;2022-07-05T08:30:37;22.20;99.90
12870;DHT22;6503;48.572;13.460;2022-07-05T08:33:04;21.90;99.90
12870;DHT22;6503;48.572;13.460;2022-07-05T08:35:32;21.70;99.90
12870;DHT22;6503;48.572;13.460;2022-07-05T08:38:00;21.70;99.90
12870;DHT22;6503;48.572;13.460;2022-07-05T08:40:33;21.70;99.90
12870;DHT22;6503;48.572;13.460;2022-07-05T08:43:05;21.90;99.90
12870;DHT22;6503;48.572;13.460;2022-07-05T08:45:35;22.20;99.90
12870;DHT22;6503;48.572;13.460;2022-07-05T08:48:05;22.50;99.90
12870;DHT22;6503;48.572;13.460;2022-07-05T08:50:34;22.70;99.90
12870;DHT22;6503;48.572;13.460;2022-07-05T08:53:02;23.10;99.90
12870;DHT22;6503;48.572;13.460;2022-07-05T08:55:32;23.30;99.90
12870;DHT22;6503;48.572;13.460;2022-07-05T08:58:00;23.20;99.90
12870;DHT22;6503;48.572;13.460;2022-07-05T09:00:28;23.00;99.90
12870;DHT22;6503;48.572;13.460;2022-07-05T09:03:05;22.60;99.90
12870;DHT22;6503;48.572;13.460;2022-07-05T09:05:39;22.40;99.90
12870;DHT22;6503;48.572;13.460;2022-07-05T09:08:13;22.40;99.90
12870;DHT22;6503;48.572;13.460;2022-07-05T09:10:43;22.40;99.90
12870;DHT22;6503;48.572;13.460;2022-07-05T09:13:11;22.40;99.90
12870;DHT22;6503;48.572;13.460;2022-07-05T09:15:40;22.50;99.90
12870;DHT22;6503;48.572;13.460;2022-07-05T09:18:09;22.70;99.90
12870;DHT22;6503;48.572;13.460;2022-07-05T09:20:37;23.00;99.90
12870;DHT22;6503;48.572;13.460;2022-07-05T09:23:05;23.30;99.90
12870;DHT22;6503;48.572;13.460;2022-07-05T09:25:32;23.40;99.90
12870;DHT22;6503;48.572;13.460;2022-07-05T09:28:01;23.40;99.90
12870;DHT22;6503;48.572;13.460;2022-07-05T09:30:32;23.00;99.90
12870;DHT22;6503;48.572;13.460;2022-07-05T09:33:05;22.80;99.90
12870;DHT22;6503;48.572;13.460;2022-07-05T09:35:39;22.80;99.90
12870;DHT22;6503;48.572;13.460;2022-07-05T09:38:17;22.70;99.90
12870;DHT22;6503;48.572;13.460;2022-07-05T09:40:50;22.90;99.90
12870;DHT22;6503;48.572;13.460;2022-07-05T09:43:20;23.10;99.90
12870;DHT22;6503;48.572;13.460;2022-07-05T09:45:51;23.40;99.90
12870;DHT22;6503;48.572;13.460;2022-07-05T09:48:20;23.50;99.90
12870;DHT22;6503;48.572;13.460;2022-07-05T09:50:50;23.60;99.90
12870;DHT22;6503;48.572;13.460;2022-07-05T09:53:18;23.80;99.90
12870;DHT22;6503;48.572;13.460;2022-07-05T09:56:00;23.80;99.90
12870;DHT22;6503;48.572;13.460;2022-07-05T09:58:29;23.70;99.90
12870;DHT22;6503;48.572;13.460;2022-07-05T10:00:58;23.80;99.90
12870;DHT22;6503;48.572;13.460;2022-07-05T10:03:26;23.90;99.90
12870;DHT22;6503;48.572;13.460;2022-07-05T10:06:10;23.90;99.90
12870;DHT22;6503;48.572;13.460;2022-07-05T10:08:38;24.10;99.90
12870;DHT22;6503;48.572;13.460;2022-07-05T10:11:07;23.80;99.90
12870;DHT22;6503;48.572;13.460;2022-07-05T10:13:38;23.90;99.90
12870;DHT22;6503;48.572;13.460;2022-07-05T10:16:07;24.10;99.90
12870;DHT22;6503;48.572;13.460;2022-07-05T10:18:40;24.30;99.90
12870;DHT22;6503;48.572;13.460;2022-07-05T10:21:12;24.20;99.90
12870;DHT22;6503;48.572;13.460;2022-07-05T10:23:42;24.30;99.90
12870;DHT22;6503;48.572;13.460;2022-07-05T10:26:13;24.40;99.90
12870;DHT22;6503;48.572;13.460;2022-07-05T10:28:43;24.20;99.90
12870;DHT22;6503;48.572;13.460;2022-07-05T10:31:13;24.20;99.90
12870;DHT22;6503;48.572;13.460;2022-07-05T10:33:41;24.40;99.90
12870;DHT22;6503;48.572;13.460;2022-07-05T10:36:13;24.60;99.90
12870;DHT22;6503;48.572;13.460;2022-07-05T10:38:43;24.80;99.90
12870;DHT22;6503;48.572;13.460;2022-07-05T10:41:12;24.70;99.90
12870;DHT22;6503;48.572;13.460;2022-07-05T10:43:40;24.70;99.90
12870;DHT22;6503;48.572;13.460;2022-07-05T10:46:19;24.90;99.90
12870;DHT22;6503;48.572;13.460;2022-07-05T10:49:19;24.80;99.90
12870;DHT22;6503;48.572;13.460;2022-07-05T10:51:51;25.00;99.90
12870;DHT22;6503;48.572;13.460;2022-07-05T10:54:19;24.70;99.90
12870;DHT22;6503;48.572;13.460;2022-07-05T11:00:06;25.20;99.90
12870;DHT22;6503;48.572;13.460;2022-07-05T11:02:33;25.50;99.90
12870;DHT22;6503;48.572;13.460;2022-07-05T11:05:02;25.50;99.90
12870;DHT22;6503;48.572;13.460;2022-07-05T11:11:09;25.60;99.90
12870;DHT22;6503;48.572;13.460;2022-07-05T11:13:38;25.60;99.90
12870;DHT22;6503;48.572;13.460;2022-07-05T11:16:20;25.60;99.90
12870;DHT22;6503;48.572;13.460;2022-07-05T11:18:51;26.00;99.90
12870;DHT22;6503;48.572;13.460;2022-07-05T11:21:22;26.30;99.90
12870;DHT22;6503;48.572;13.460;2022-07-05T11:23:50;26.40;99.90
12870;DHT22;6503;48.572;13.460;2022-07-05T11:26:40;26.40;99.90
12870;DHT22;6503;48.572;13.460;2022-07-05T11:29:39;26.30;99.90
12870;DHT22;6503;48.572;13.460;2022-07-05T11:32:11;26.30;99.90
12870;DHT22;6503;48.572;13.460;2022-07-05T11:34:40;26.30;99.90
12870;DHT22;6503;48.572;13.460;2022-07-05T11:37:21;26.30;99.90
12870;DHT22;6503;48.572;13.460;2022-07-05T11:40:29;26.30;99.90
12870;DHT22;6503;48.572;13.460;2022-07-05T11:42:59;26.40;99.90
12870;DHT22;6503;48.572;13.460;2022-07-05T11:45:33;26.60;99.90
12870;DHT22;6503;48.572;13.460;2022-07-05T11:48:05;26.70;99.90
12870;DHT22;6503;48.572;13.460;2022-07-05T11:50:42;26.60;99.90
12870;DHT22;6503;48.572;13.460;2022-07-05T11:53:11;26.60;99.90
12870;DHT22;6503;48.572;13.460;2022-07-05T11:55:38;26.60;99.90
12870;DHT22;6503;48.572;13.460;2022-07-05T11:58:09;26.60;99.90
12870;DHT22;6503;48.572;13.460;2022-07-05T12:00:38;26.60;99.90
12870;DHT22;6503;48.572;13.460;2022-07-05T12:03:11;26.90;99.90
12870;DHT22;6503;48.572;13.460;2022-07-05T12:05:39;27.00;99.90
12870;DHT22;6503;48.572;13.460;2022-07-05T12:08:06;27.10;99.90
12870;DHT22;6503;48.572;13.460;2022-07-05T12:10:35;26.80;99.90
12870;DHT22;6503;48.572;13.460;2022-07-05T12:13:22;26.60;99.90
12870;DHT22;6503;48.572;13.460;2022-07-05T12:15:53;26.40;99.90
12870;DHT22;6503;48.572;13.460;2022-07-05T12:18:27;26.20;99.90
12870;DHT22;6503;48.572;13.460;2022-07-05T12:20:54;26.30;99.90
12870;DHT22;6503;48.572;13.460;2022-07-05T12:23:26;26.80;99.90
12870;DHT22;6503;48.572;13.460;2022-07-05T12:25:54;27.40;99.90
12870;DHT22;6503;48.572;13.460;2022-07-05T12:28:26;28.00;99.90
12870;DHT22;6503;48.572;13.460;2022-07-05T12:30:54;28.30;95.60
12870;DHT22;6503;48.572;13.460;2022-07-05T12:33:23;28.50;80.90
12870;DHT22;6503;48.572;13.460;2022-07-05T12:35:51;28.60;79.60
12870;DHT22;6503;48.572;13.460;2022-07-05T12:38:20;28.50;56.70
12870;DHT22;6503;48.572;13.460;2022-07-05T12:40:57;28.50;67.50
12870;DHT22;6503;48.572;13.460;2022-07-05T12:43:26;28.20;70.70
12870;DHT22;6503;48.572;13.460;2022-07-05T12:45:59;27.70;70.90
12870;DHT22;6503;48.572;13.460;2022-07-05T12:48:30;27.50;69.80
12870;DHT22;6503;48.572;13.460;2022-07-05T12:50:58;26.90;79.80
12870;DHT22;6503;48.572;13.460;2022-07-05T12:53:26;26.00;98.50
12870;DHT22;6503;48.572;13.460;2022-07-05T12:56:23;25.60;99.90
12870;DHT22;6503;48.572;13.460;2022-07-05T12:59:11;25.30;99.90
12870;DHT22;6503;48.572;13.460;2022-07-05T13:01:40;24.90;99.90
12870;DHT22;6503;48.572;13.460;2022-07-05T13:04:09;25.00;99.90
12870;DHT22;6503;48.572;13.460;2022-07-05T13:06:41;25.10;99.90
12870;DHT22;6503;48.572;13.460;2022-07-05T13:09:08;25.50;99.90
12870;DHT22;6503;48.572;13.460;2022-07-05T13:11:36;26.10;99.90
12870;DHT22;6503;48.572;13.460;2022-07-05T13:14:03;26.60;92.90
12870;DHT22;6503;48.572;13.460;2022-07-05T13:16:32;26.30;92.40
12870;DHT22;6503;48.572;13.460;2022-07-05T13:19:10;26.30;99.90
12870;DHT22;6503;48.572;13.460;2022-07-05T13:21:38;26.00;96.90
12870;DHT22;6503;48.572;13.460;2022-07-05T13:24:06;26.40;96.80
12870;DHT22;6503;48.572;13.460;2022-07-05T13:26:33;26.40;99.30
12870;DHT22;6503;48.572;13.460;2022-07-05T13:29:00;26.60;91.90
12870;DHT22;6503;48.572;13.460;2022-07-05T13:31:28;26.70;90.70
12870;DHT22;6503;48.572;13.460;2022-07-05T13:33:59;26.50;91.80
12870;DHT22;6503;48.572;13.460;2022-07-05T13:36:28;26.40;92.50
12870;DHT22;6503;48.572;13.460;2022-07-05T13:38:55;26.40;92.20
12870;DHT22;6503;48.572;13.460;2022-07-05T13:41:22;26.40;93.00
12870;DHT22;6503;48.572;13.460;2022-07-05T13:43:51;26.40;92.00
12870;DHT22;6503;48.572;13.460;2022-07-05T13:46:19;26.70;93.70
12870;DHT22;6503;48.572;13.460;2022-07-05T13:48:46;27.00;87.70
12870;DHT22;6503;48.572;13.460;2022-07-05T13:51:15;26.70;85.60
12870;DHT22;6503;48.572;13.460;2022-07-05T13:53:42;26.20;95.00
12870;DHT22;6503;48.572;13.460;2022-07-05T13:56:09;26.30;95.90
12870;DHT22;6503;48.572;13.460;2022-07-05T13:58:38;26.60;95.60
12870;DHT22;6503;48.572;13.460;2022-07-05T14:01:06;27.00;91.70
12870;DHT22;6503;48.572;13.460;2022-07-05T14:03:34;27.20;80.80
12870;DHT22;6503;48.572;13.460;2022-07-05T14:06:01;27.20;90.10
12870;DHT22;6503;48.572;13.460;2022-07-05T14:08:31;26.80;89.00
12870;DHT22;6503;48.572;13.460;2022-07-05T14:10:59;26.50;81.30
12870;DHT22;6503;48.572;13.460;2022-07-05T14:13:27;26.40;86.90
12870;DHT22;6503;48.572;13.460;2022-07-05T14:15:55;26.40;92.40
12870;DHT22;6503;48.572;13.460;2022-07-05T14:18:27;26.60;89.00
12870;DHT22;6503;48.572;13.460;2022-07-05T14:21:07;26.80;89.90
12870;DHT22;6503;48.572;13.460;2022-07-05T14:23:52;26.60;95.20
12870;DHT22;6503;48.572;13.460;2022-07-05T14:26:22;26.60;95.80
12870;DHT22;6503;48.572;13.460;2022-07-05T14:28:55;27.00;91.30
12870;DHT22;6503;48.572;13.460;2022-07-05T14:31:25;27.20;88.90
12870;DHT22;6503;48.572;13.460;2022-07-05T14:33:59;27.20;84.10
12870;DHT22;6503;48.572;13.460;2022-07-05T14:36:27;26.80;89.10
12870;DHT22;6503;48.572;13.460;2022-07-05T14:38:56;26.90;88.70
12870;DHT22;6503;48.572;13.460;2022-07-05T14:41:26;27.20;88.20
12870;DHT22;6503;48.572;13.460;2022-07-05T14:43:59;27.40;76.90
12870;DHT22;6503;48.572;13.460;2022-07-05T14:46:35;27.40;69.10
12870;DHT22;6503;48.572;13.460;2022-07-05T14:49:03;27.10;83.00
12870;DHT22;6503;48.572;13.460;2022-07-05T14:51:30;27.20;83.80
12870;DHT22;6503;48.572;13.460;2022-07-05T14:54:02;27.40;77.60
12870;DHT22;6503;48.572;13.460;2022-07-05T14:56:31;27.60;76.00
12870;DHT22;6503;48.572;13.460;2022-07-05T14:58:58;27.90;66.50
12870;DHT22;6503;48.572;13.460;2022-07-05T15:01:25;28.30;65.90
12870;DHT22;6503;48.572;13.460;2022-07-05T15:03:52;28.70;57.20
12870;DHT22;6503;48.572;13.460;2022-07-05T15:06:19;28.90;54.70
12870;DHT22;6503;48.572;13.460;2022-07-05T15:08:46;29.30;52.80
12870;DHT22;6503;48.572;13.460;2022-07-05T15:11:27;29.10;54.90
12870;DHT22;6503;48.572;13.460;2022-07-05T15:13:56;28.90;53.50
12870;DHT22;6503;48.572;13.460;2022-07-05T15:16:23;28.80;53.10
12870;DHT22;6503;48.572;13.460;2022-07-05T15:18:50;28.70;53.60
12870;DHT22;6503;48.572;13.460;2022-07-05T15:21:19;28.50;54.80
12870;DHT22;6503;48.572;13.460;2022-07-05T15:23:47;28.50;54.80
12870;DHT22;6503;48.572;13.460;2022-07-05T15:26:17;28.50;56.00
12870;DHT22;6503;48.572;13.460;2022-07-05T15:28:48;28.20;55.70
12870;DHT22;6503;48.572;13.460;2022-07-05T15:31:18;27.80;63.30
12870;DHT22;6503;48.572;13.460;2022-07-05T15:33:47;27.50;71.60
12870;DHT22;6503;48.572;13.460;2022-07-05T15:36:17;27.50;66.50
12870;DHT22;6503;48.572;13.460;2022-07-05T15:38:59;27.60;69.80
12870;DHT22;6503;48.572;13.460;2022-07-05T15:41:30;27.60;66.50
12870;DHT22;6503;48.572;13.460;2022-07-05T15:43:59;27.60;69.60
12870;DHT22;6503;48.572;13.460;2022-07-05T15:46:26;27.50;66.00
12870;DHT22;6503;48.572;13.460;2022-07-05T15:49:15;27.20;69.40
12870;DHT22;6503;48.572;13.460;2022-07-05T15:51:44;27.10;83.60